Broadmeadows, Australia
Current Conditions -  °F | °C
As of 12:30 AM on Saturday 25 Oct 2014 (Local Time) from YMEN Reporting Station
Overcast Overcast  
Wind Chill: 16°   Ceiling: 1200
Heat Index: 16°   Visibility: 6mi
Dew Point: 13°   Wind: 7mph
Humidity: 82%   Direction: 140°SE
Pressure: 30"   Gusts: NA
Location:  37.68°S, 144.92°E
Report Text: YMEN 241330Z AUTO 14006KT 9999 // OVC012 16/13 Q1016
Loading
Personal Weather Stations






























Interactive Weather Map
Tropical Storm Tracking
New forecast layout! Learn more

10-Day Weather Forecast

Advertisements
Track Severe Weather on mobile